2 juli 2022

Tijd Code Weer Temp. Zicht Plafond Wind METAR/SPECI
9:00 a.m.
V
61 °F 6¼ mi+ - 110° 110° 8 kt METAR LFSL 020700Z AUTO 11008KT CAVOK 16/11 Q1021 NOSIG
8:30 a.m.
V
59 °F 6¼ mi+ - 130° 130° 7 kt METAR LFSL 020630Z AUTO 13007KT 100V170 CAVOK 15/11 Q1020 NOSIG
8:00 a.m.
V
57 °F 6¼ mi+ - 120° 120° 4 kt METAR LFSL 020600Z AUTO 12004KT CAVOK 14/11 Q1020 NOSIG
7:30 a.m.
V
54 °F 6¼ mi+ - Var 000° 0 kt METAR LFSL 020530Z AUTO 00000KT CAVOK 12/10 Q1020 NOSIG
7:00 a.m.
L
50 °F ¾ mi - Var 000° 0 kt METAR LFSL 020500Z AUTO 00000KT 9999 1300 R29/0900D NSC 10/09 Q1020 NOSIG
6:30 a.m.
V
48 °F 6¼ mi+ - Var 000° 0 kt METAR LFSL 020430Z AUTO 00000KT CAVOK 09/08 Q1020 NOSIG
6:00 a.m.
V
46 °F 6¼ mi+ - 140° 140° 2 kt METAR LFSL 020400Z AUTO 14002KT CAVOK 08/08 Q1020 NOSIG
5:30 a.m.
V
48 °F 6¼ mi+ - 110° 110° 3 kt METAR LFSL 020330Z AUTO 11003KT CAVOK 09/08 Q1020 NOSIG
5:00 a.m.
V
48 °F 6¼ mi+ - 150° 150° 1 kt METAR LFSL 020300Z AUTO 15001KT CAVOK 09/08 Q1020 NOSIG
4:30 a.m.
V
48 °F 6¼ mi+ - Var 000° 0 kt METAR LFSL 020230Z AUTO 00000KT CAVOK 09/08 Q1020 NOSIG
4:00 a.m.
V
50 °F 6¼ mi+ - Var 000° 0 kt METAR LFSL 020200Z AUTO 00000KT CAVOK 10/09 Q1020
3:30 a.m.
V
50 °F 6¼ mi+ - Var 000° 0 kt METAR LFSL 020130Z AUTO 00000KT CAVOK 10/09 Q1020
3:00 a.m.
V
50 °F 6¼ mi+ - Var 000° 0 kt METAR LFSL 020100Z AUTO 00000KT CAVOK 10/09 Q1021
2:30 a.m.
V
50 °F 6¼ mi+ - Var 000° 0 kt METAR LFSL 020030Z AUTO 00000KT CAVOK 10/09 Q1021
2:00 a.m.
V
52 °F 6¼ mi+ - Var 000° 0 kt METAR LFSL 020000Z AUTO 00000KT CAVOK 11/10 Q1021
1:30 a.m.
V
52 °F 6¼ mi+ - Var Var 1 kt METAR LFSL 012330Z AUTO VRB01KT CAVOK 11/10 Q1021
1:00 a.m.
V
54 °F 6¼ mi+ - Var Var 3 kt METAR LFSL 012300Z AUTO VRB03KT CAVOK 12/10 Q1021
12:30 a.m.
V
54 °F 6¼ mi+ - Var Var 2 kt METAR LFSL 012230Z AUTO VRB02KT CAVOK 12/10 Q1021
12:00 a.m.
V
54 °F 6¼ mi+ - 300° 300° 2 kt METAR LFSL 012200Z AUTO 30002KT CAVOK 12/10 Q1021

1 juli 2022

Tijd Code Weer Temp. Zicht Plafond Wind METAR/SPECI
11:30 p.m.
V
55 °F 6¼ mi+ - 300° 300° 2 kt METAR LFSL 012130Z AUTO 30002KT CAVOK 13/11 Q1021
11:00 p.m.
V
55 °F 6¼ mi+ - 290° 290° 2 kt METAR LFSL 012100Z AUTO 29002KT CAVOK 13/11 Q1021
10:30 p.m.
V
57 °F 6¼ mi+ - Var Var 2 kt METAR LFSL 012030Z AUTO VRB02KT CAVOK 14/11 Q1021
10:00 p.m.
V
61 °F 6¼ mi+ - 310° 310° 3 kt METAR LFSL 012000Z AUTO 31003KT CAVOK 16/11 Q1021 NOSIG
9:30 p.m.
V
66 °F 6¼ mi+ - 320° 320° 4 kt METAR LFSL 011930Z AUTO 32004KT CAVOK 19/11 Q1020 NOSIG
9:00 p.m.
V
68 °F 6¼ mi+ - 330° 330° 5 kt METAR LFSL 011900Z AUTO 33005KT 300V360 CAVOK 20/09 Q1020 NOSIG
8:30 p.m.
V
70 °F 6¼ mi+ - 320° 320° 7 kt METAR LFSL 011830Z AUTO 32007KT CAVOK 21/09 Q1021 NOSIG
8:00 p.m.
V
70 °F 6¼ mi+ - 310° 310° 8 kt METAR LFSL 011800Z AUTO 31008KT CAVOK 21/09 Q1021 NOSIG
7:30 p.m.
V
70 °F 6¼ mi+ - 300° 300° 7 kt METAR LFSL 011730Z AUTO 30007KT 260V330 CAVOK 21/09 Q1021 NOSIG
7:00 p.m.
V
70 °F 6¼ mi+ - 320° 320° 8 kt METAR LFSL 011700Z AUTO 32008KT 280V360 CAVOK 21/09 Q1021 NOSIG
6:30 p.m.
V
70 °F 6¼ mi+ - 300° 300° 7 kt METAR LFSL 011630Z AUTO 30007KT 270V360 CAVOK 21/09 Q1021 NOSIG
6:00 p.m.
V
72 °F 6¼ mi+ - 290° 290° 7 kt METAR LFSL 011600Z AUTO 29007KT 230V320 9999 FEW049 22/09 Q1021 NOSIG
5:30 p.m.
V
70 °F 6¼ mi+ - 320° 320° 7 kt METAR LFSL 011530Z AUTO 32007KT 280V010 CAVOK 21/09 Q1021 NOSIG
5:00 p.m.
V
70 °F 6¼ mi+ - 330° 330° 6 kt METAR LFSL 011500Z AUTO 33006KT 250V030 CAVOK 21/09 Q1021 NOSIG
4:30 p.m.
V
70 °F 6¼ mi+ - Var Var 4 kt METAR LFSL 011430Z AUTO VRB04KT CAVOK 21/08 Q1021 NOSIG
4:00 p.m.
V
68 °F 6¼ mi+ - Var Var 4 kt METAR LFSL 011400Z AUTO VRB04KT 9999 SCT047 20/08 Q1021 NOSIG
3:30 p.m.
V
70 °F 6¼ mi+ - Var Var 5 kt METAR LFSL 011330Z AUTO VRB05KT 9999 SCT047 21/10 Q1021 NOSIG
3:00 p.m.
V
68 °F 6¼ mi+ 4.900 ft 320° 320° 7 kt METAR LFSL 011300Z AUTO 32007KT 250V020 9999 BKN049 20/08 Q1021 NOSIG
2:30 p.m.
V
66 °F 6¼ mi+ - Var Var 3 kt METAR LFSL 011230Z AUTO VRB03KT 9999 FEW047 19/09 Q1021 NOSIG
2:00 p.m.
V
66 °F 6¼ mi+ 4.500 ft 310° 310° 5 kt METAR LFSL 011200Z AUTO 31005KT 250V040 9999 BKN045 19/08 Q1022 NOSIG
1:30 p.m.
V
66 °F 6¼ mi+ 4.200 ft Var Var 4 kt METAR LFSL 011130Z AUTO VRB04KT 9999 BKN042 19/08 Q1022 NOSIG
1:00 p.m.
V
64 °F 6¼ mi+ - 310° 310° 5 kt METAR LFSL 011100Z AUTO 31005KT 220V010 9999 FEW038 18/08 Q1022 NOSIG
12:30 p.m.
V
64 °F 6¼ mi+ - 320° 320° 5 kt METAR LFSL 011030Z AUTO 32005KT 220V020 9999 FEW035 18/09 Q1022 NOSIG
12:00 p.m.
V
63 °F 6¼ mi+ 4.300 ft 330° 330° 5 kt METAR LFSL 011000Z AUTO 33005KT 280V020 9999 FEW033 BKN043 BKN049 17/10 Q1022 NOSIG
11:30 a.m.
M
61 °F 6¼ mi+ 2.600 ft 350° 350° 4 kt METAR LFSL 010930Z AUTO 35004KT 300V030 9999 BKN026 BKN036 16/09 Q1022 NOSIG
11:00 a.m.
V
61 °F 6¼ mi+ - Var Var 3 kt METAR LFSL 010900Z AUTO VRB03KT 9999 SCT018 16/10 Q1021 NOSIG
10:30 a.m.
M
59 °F 6¼ mi+ 1.400 ft 360° 360° 4 kt METAR LFSL 010830Z AUTO 36004KT 320V030 9999 FEW008 BKN014 15/11 Q1021 BECMG NSC
10:00 a.m.
I
57 °F 6¼ mi+ 700 ft 030° 030° 4 kt METAR LFSL 010800Z AUTO 03004KT 330V070 9999 BKN007 14/11 Q1021 BECMG FEW015
9:30 a.m.
L
55 °F 6¼ mi+ 400 ft Var Var 3 kt METAR LFSL 010730Z AUTO VRB03KT 9999 BKN004 13/12 Q1021 BECMG FEW015
9:00 a.m.
L
54 °F 6¼ mi+ 300 ft 350° 350° 3 kt METAR LFSL 010700Z AUTO 35003KT 300V020 9999 OVC003 12/12 Q1021 BECMG FEW015
8:30 a.m.
L
54 °F 3 mi - 360° 360° 3 kt METAR LFSL 010630Z AUTO 36003KT 310V050 4900 R29/1200D BR VV/// 12/12 Q1021 BECMG 9999 NSW FEW015
8:00 a.m.
L
54 °F ¼ mi - 310° 310° 3 kt METAR LFSL 010600Z AUTO 31003KT 280V360 0350 R29/0600U FG VV/// 12/11 Q1021 BECMG 9999 NSW FEW015
7:30 a.m.
L
52 °F ⅛ mi - Var Var 2 kt METAR LFSL 010530Z AUTO VRB02KT 0200 R29/0275D FG VV/// 11/11 Q1021 BECMG 9999 NSW FEW008
7:00 a.m.
L
48 °F ¼ mi - 110° 110° 2 kt METAR LFSL 010500Z AUTO 11002KT 0350 R29/0400N FG VV/// 09/09 Q1021 BECMG 9999 NSW FEW008
6:30 a.m.
L
50 °F ⅛ mi - Var 000° 0 kt METAR LFSL 010430Z AUTO 00000KT 0300 R29/0325N FG VV/// 10/09 Q1021 BECMG 9999 NSW FEW008
6:00 a.m.
L
50 °F ⅝ mi - Var Var 1 kt METAR LFSL 010400Z AUTO VRB01KT 1000 R29/1100U BCFG VV/// 10/10 Q1021 BECMG 9999 NSW FEW008
5:30 a.m.
L
50 °F ¼ mi - Var 000° 0 kt METAR LFSL 010330Z AUTO 00000KT 0400 0350 R29/0450D FG VV/// 10/10 Q1021 BECMG 9999 NSW FEW008
5:00 a.m.
L
52 °F ⅛ mi - Var 000° 0 kt METAR LFSL 010300Z AUTO 00000KT 0250 R29/0325N FG VV/// 11/11 Q1021 BECMG 0500 FG
4:30 a.m.
L
52 °F ¼ mi - Var Var 1 kt METAR LFSL 010230Z AUTO VRB01KT 0500 R29/0600N FG VV/// 11/11 Q1021
4:00 a.m.
L
52 °F 6¼ mi+ - Var 000° 0 kt METAR LFSL 010200Z AUTO 00000KT 9999 VV/// 11/10 Q1020
3:30 a.m.
M
54 °F 6¼ mi+ 1.800 ft Var 000° 0 kt METAR LFSL 010130Z AUTO 00000KT 9999 FEW011 BKN018 BKN025 12/11 Q1021
3:00 a.m.
M
52 °F 6¼ mi+ 1.000 ft 200° 200° 1 kt METAR LFSL 010100Z AUTO 20001KT 9999 SCT004 BKN010 OVC015 11/11 Q1021
2:30 a.m.
L
52 °F 6¼ mi+ 400 ft Var 000° 0 kt METAR LFSL 010030Z AUTO 00000KT 9999 OVC004 11/10 Q1021
2:00 a.m.
I
50 °F 6¼ mi+ 500 ft 180° 180° 1 kt METAR LFSL 010000Z AUTO 18001KT 9999 OVC005 10/10 Q1020
1:30 a.m.
I
50 °F 6¼ mi+ 800 ft Var 000° 0 kt METAR LFSL 302330Z AUTO 00000KT 9999 BKN008 10/10 Q1021
1:00 a.m.
V
52 °F 6¼ mi+ - 120° 120° 1 kt METAR LFSL 302300Z AUTO 12001KT 9999 FEW009 11/10 Q1020
12:30 a.m.
L
52 °F 1 mi - Var Var 2 kt METAR LFSL 302230Z AUTO VRB02KT 1600 R29/1300U BCFG VV/// 11/10 Q1020
12:00 a.m.
V
54 °F 6¼ mi+ 3.100 ft Var 000° 0 kt METAR LFSL 302200Z AUTO 00000KT 9999 BKN031 12/11 Q1020

30 juni 2022

Tijd Code Weer Temp. Zicht Plafond Wind METAR/SPECI
11:30 p.m.
V
54 °F 6¼ mi+ 3.200 ft Var 000° 0 kt METAR LFSL 302130Z AUTO 00000KT 9999 BKN032 BKN072 BKN098 12/11 Q1020
11:00 p.m.
V
54 °F 6¼ mi+ - Var 000° 0 kt METAR LFSL 302100Z AUTO 00000KT CAVOK 12/11 Q1020
10:30 p.m.
V
54 °F 6¼ mi+ - Var 000° 0 kt METAR LFSL 302030Z AUTO 00000KT CAVOK 12/12 Q1020
10:00 p.m.
V
55 °F 6¼ mi+ - Var 000° 0 kt METAR LFSL 302000Z AUTO 00000KT CAVOK 13/12 Q1019 NOSIG
9:30 p.m.
V
57 °F 6¼ mi+ - 200° 200° 1 kt METAR LFSL 301930Z AUTO 20001KT CAVOK 14/13 Q1019 NOSIG
9:00 p.m.
V
57 °F 6¼ mi+ 10.000 ft Var Var 2 kt METAR LFSL 301900Z AUTO VRB02KT 9999 SCT009 BKN100 BKN120 14/12 Q1019 NOSIG
8:30 p.m.
V
59 °F 6¼ mi+ - Var Var 2 kt METAR LFSL 301830Z AUTO VRB02KT CAVOK 15/12 Q1019 NOSIG
8:00 p.m.
V
57 °F 6¼ mi+ 10.000 ft Var Var 2 kt METAR LFSL 301800Z AUTO VRB02KT 9999 FEW008 SCT076 OVC100 14/12 Q1018 NOSIG
7:30 p.m.
V
57 °F 6¼ mi+ 9.400 ft Var Var 2 kt METAR LFSL 301730Z AUTO VRB02KT 9999 FEW008/// OVC094/// ///TCU 14/12 Q1018 BECMG SCT013 BKN030
7:00 p.m.
V
59 °F 6¼ mi+ 10.000 ft Var Var 2 kt METAR LFSL 301700Z AUTO VRB02KT 9999 SCT009/// BKN100/// ///TCU 15/12 Q1018 TEMPO 3000 RA BECMG SCT013 BKN030
6:30 p.m.
V
57 °F 6¼ mi+ 10.000 ft Var Var 2 kt METAR LFSL 301630Z AUTO VRB02KT 9999 FEW008/// BKN100/// //////TCU 14/12 Q1018 TEMPO 3000 RA BECMG SCT013 BKN030
6:00 p.m.
I
55 °F 6¼ mi+ 800 ft 310° 310° 3 kt METAR LFSL 301600Z AUTO 31003KT 280V340 9999 -RA OVC008/// ///TCU 13/12 Q1018 BECMG SCT013 BKN030
5:30 p.m.
I
57 °F 6¼ mi+ 700 ft 280° 280° 3 kt METAR LFSL 301530Z AUTO 28003KT 220V320 9999 -RA BKN007/// OVC032/// //////TCU 14/12 Q1018 BECMG SCT013 BKN030
5:00 p.m.
I
57 °F 6¼ mi+ 800 ft Var Var 2 kt METAR LFSL 301500Z AUTO VRB02KT 9999 -RA BKN008/// BKN036/// BKN046/// ///CB 14/12 Q1018 TEMPO 3000 RA BECMG SCT013 BKN030
4:30 p.m.
M
57 °F 6¼ mi+ 1.000 ft 310° 310° 5 kt METAR LFSL 301430Z AUTO 31005KT 9999 -RA BKN010/// BKN020/// BKN035/// ///CB 14/12 Q1018 BECMG SCT013 BKN030
4:00 p.m.
V
55 °F 6¼ mi+ 6.200 ft 300° 300° 7 kt METAR LFSL 301400Z AUTO 30007KT 9999 -RA FEW012/// SCT038/// OVC062/// ///CB 13/12 Q1018 BECMG SCT013 BKN030
3:30 p.m.
I
57 °F 6¼ mi+ 700 ft 300° 300° 6 kt METAR LFSL 301330Z AUTO 30006KT 270V340 9999 BKN007/// BKN052/// OVC062/// //////CB 14/13 Q1018 BECMG SCT013 BKN030
3:00 p.m.
M
57 °F 6¼ mi+ 1.000 ft 290° 290° 6 kt METAR LFSL 301300Z AUTO 29006KT 9999 -RA SCT006/// BKN010/// OVC054/// //////CB 14/12 Q1017 TEMPO 3000 -RADZ BECMG SCT013 BKN030
2:30 p.m.
V
57 °F 6¼ mi+ 5.600 ft 290° 290° 6 kt METAR LFSL 301230Z AUTO 29006KT 240V320 9999 RA FEW008/// OVC056/// ///TCU 14/13 Q1017 TEMPO 3000 -RADZ BECMG SCT013 BKN030
2:00 p.m.
I
57 °F 6¼ mi+ 800 ft 290° 290° 6 kt METAR LFSL 301200Z AUTO 29006KT 240V320 9999 -RA BKN008/// BKN034/// BKN047/// //////TCU 14/13 Q1017 TEMPO 3000 -RADZ OVC004
1:30 p.m.
M
57 °F 6¼ mi+ 1.200 ft 290° 290° 6 kt METAR LFSL 301130Z AUTO 29006KT 9999 -RA SCT006/// BKN012/// BKN023/// //////CB 14/13 Q1017 BECMG SCT013 BKN030
1:00 p.m.
I
57 °F 6¼ mi+ 600 ft 290° 290° 4 kt METAR LFSL 301100Z AUTO 29004KT 250V320 9999 -RA BKN006/// BKN018/// OVC027/// ///TCU 14/13 Q1017 TEMPO 3000 -RADZ BECMG SCT013 BKN030
12:30 p.m.
I
55 °F 6¼ mi+ 600 ft 320° 320° 5 kt METAR LFSL 301030Z AUTO 32005KT 9999 OVC006/// //////CB 13/13 Q1016 TEMPO 3000 -RADZ BECMG SCT013 BKN030
12:00 p.m.
I
57 °F 6¼ mi+ 700 ft 320° 320° 7 kt METAR LFSL 301000Z AUTO 32007KT 9999 BKN007 OVC012 14/12 Q1016 TEMPO 3000 -RADZ OVC003
11:30 a.m.
I
55 °F 6¼ mi+ 600 ft 310° 310° 8 kt METAR LFSL 300930Z AUTO 31008KT 280V340 9999 BKN006/// OVC010/// ///TCU 13/12 Q1016 TEMPO 3000 -RADZ OVC003
11:00 a.m.
I
57 °F 4⅜ mi 500 ft 320° 320° 10 kt METAR LFSL 300900Z AUTO 32010KT 7000 OVC005 14/13 Q1015 TEMPO 3000 -RADZ
10:30 a.m.
L
57 °F 3⅛ mi 400 ft 310° 310° 10 kt METAR LFSL 300830Z AUTO 31010KT 5000 DZ BR BKN004 OVC008 14/13 Q1015 TEMPO NSW OVC005
10:00 a.m.
L
55 °F 3 mi 300 ft 310° 310° 9 kt METAR LFSL 300800Z AUTO 31009KT 4800 DZ BR BKN003 OVC007 13/13 Q1015 TEMPO NSW OVC005
9:30 a.m.
L
55 °F 2⅜ mi 400 ft 310° 310° 9 kt METAR LFSL 300730Z AUTO 31009KT 3800 DZ BR BKN004 BKN010 OVC026 13/13 Q1015 TEMPO NSW OVC005
9:00 a.m.
M
55 °F 6¼ mi+ 2.200 ft 330° 330° 8 kt METAR LFSL 300700Z AUTO 33008KT 9999 -DZ OVC022 13/13 Q1014 TEMPO 4000 -RADZ OVC003
8:30 a.m.
M
55 °F 6¼ mi+ 1.900 ft 320° 320° 11 kt METAR LFSL 300630Z AUTO 32011KT 9999 FEW008/// SCT014/// OVC019/// ///TCU 13/12 Q1014 TEMPO 4000 -RADZ OVC003
8:00 a.m.
I
57 °F 6¼ mi+ 600 ft 310° 310° 12 kt METAR LFSL 300600Z AUTO 31012KT 9999 OVC006 14/13 Q1014 TEMPO 4000 -RADZ OVC003
7:30 a.m.
L
57 °F 6¼ mi+ 300 ft 300° 300° 10 kt METAR LFSL 300530Z AUTO 30010KT 9999 OVC003/// //////CB 14/13 Q1013 TEMPO 4000 -RADZ BKN013
7:00 a.m.
L
57 °F 6¼ mi+ 400 ft 310° 310° 9 kt METAR LFSL 300500Z AUTO 31009KT 9999 OVC004/// //////CB 14/13 Q1013 TEMPO 4000 -RADZ OVC002
Oudere gegevens

Installeer onze app

Gemakkelijke toegang tot al het luchtvaartweer op je mobiele telefoon en tablet.
Met veel functies die niet op de website beschikbaar zijn, zoals offline ondersteuning en een persoonlijke lijst van vliegvelden.

Met cookies volgen wij en derde partijen jouw internetgedrag binnen onze site. Als je verdergaat gaan we ervan uit dat je dit goedvindt. Meer info